Time,TemperatureF,DewpointF,PressureIn,WindDirection,WindDirectionDegrees,WindSpeedMPH,WindSpeedGustMPH,Humidity,HourlyPrecipIn,Conditions,Clouds,dailyrainin,SoftwareType,DateUTC
2013-07-03 00:15:00,59.1,49.0,29.99,WSW,246,0.0,1.0,69,0.00,,,0.00,weatherlink.com 1.10,2013-07-03 04:15:00,
2013-07-03 00:45:00,57.8,49.0,29.99,WSW,246,0.0,0.0,72,0.00,,,0.00,weatherlink.com 1.10,2013-07-03 04:45:00,
2013-07-03 01:01:00,57.4,49.0,29.99,WSW,246,0.0,0.0,74,0.00,,,0.00,weatherlink.com 1.10,2013-07-03 05:01:00,
2013-07-03 01:16:00,57.0,49.0,29.98,WSW,240,0.0,0.0,75,0.00,,,0.00,weatherlink.com 1.10,2013-07-03 05:16:00,
2013-07-03 01:31:00,56.6,49.0,29.99,WSW,240,0.0,0.0,76,0.00,,,0.00,weatherlink.com 1.10,2013-07-03 05:31:00,
2013-07-03 01:46:00,56.5,50.0,29.99,WSW,240,0.0,0.0,79,0.00,,,0.00,weatherlink.com 1.10,2013-07-03 05:46:00,
2013-07-03 02:01:00,56.5,50.0,29.99,WSW,243,0.0,1.0,79,0.00,,,0.00,weatherlink.com 1.10,2013-07-03 06:01:00,
2013-07-03 02:16:00,56.4,50.0,29.99,WSW,245,1.0,1.0,80,0.00,,,0.00,weatherlink.com 1.10,2013-07-03 06:16:00,
2013-07-03 02:46:00,57.0,52.0,29.98,West,262,0.0,1.0,83,0.00,,,0.00,weatherlink.com 1.10,2013-07-03 06:46:00,
2013-07-03 03:01:00,57.2,52.0,29.98,WSW,256,1.0,2.0,83,0.00,,,0.00,weatherlink.com 1.10,2013-07-03 07:01:00,
2013-07-03 03:16:00,57.3,52.0,29.98,West,265,1.0,1.0,83,0.00,,,0.00,weatherlink.com 1.10,2013-07-03 07:16:00,
2013-07-03 03:31:00,57.3,52.0,29.98,WSW,238,1.0,2.0,83,0.00,,,0.00,weatherlink.com 1.10,2013-07-03 07:31:00,
2013-07-03 03:46:00,57.1,52.0,29.98,WSW,257,0.0,1.0,84,0.00,,,0.00,weatherlink.com 1.10,2013-07-03 07:46:00,
2013-07-03 04:01:00,56.6,52.0,29.98,WSW,257,0.0,0.0,85,0.00,,,0.00,weatherlink.com 1.10,2013-07-03 08:01:00,
2013-07-03 04:16:00,56.3,52.0,29.98,WSW,257,1.0,1.0,85,0.00,,,0.00,weatherlink.com 1.10,2013-07-03 08:16:00,
2013-07-03 04:31:00,56.3,52.0,29.97,West,259,0.0,0.0,85,0.00,,,0.00,weatherlink.com 1.10,2013-07-03 08:31:00,
2013-07-03 04:46:00,55.5,52.0,29.98,West,260,0.0,0.0,88,0.00,,,0.00,weatherlink.com 1.10,2013-07-03 08:46:00,
2013-07-03 05:00:00,54.7,52.0,29.98,West,259,0.0,0.0,89,0.00,,,0.00,weatherlink.com 1.10,2013-07-03 09:00:00,
2013-07-03 05:15:00,54.3,52.0,29.98,West,259,0.0,0.0,90,0.00,,,0.00,weatherlink.com 1.10,2013-07-03 09:15:00,
2013-07-03 05:30:00,54.5,52.0,29.97,West,260,0.0,0.0,90,0.00,,,0.00,weatherlink.com 1.10,2013-07-03 09:30:00,
2013-07-03 05:45:00,54.9,52.0,29.98,WSW,243,0.0,0.0,90,0.00,,,0.00,weatherlink.com 1.10,2013-07-03 09:45:00,
2013-07-03 06:00:00,55.1,52.0,29.98,WSW,242,0.0,1.0,90,0.00,,,0.00,weatherlink.com 1.10,2013-07-03 10:00:00,
2013-07-03 06:15:00,55.3,53.0,29.99,SW,229,0.0,1.0,90,0.00,,,0.00,weatherlink.com 1.10,2013-07-03 10:15:00,
2013-07-03 06:30:00,55.4,53.0,29.99,SW,229,0.0,0.0,90,0.00,,,0.00,weatherlink.com 1.10,2013-07-03 10:30:00,
2013-07-03 06:45:00,56.1,53.0,29.99,SW,229,0.0,0.0,89,0.00,,,0.00,weatherlink.com 1.10,2013-07-03 10:45:00,
2013-07-03 07:01:00,56.7,53.0,29.99,SW,229,0.0,0.0,88,0.00,,,0.00,weatherlink.com 1.10,2013-07-03 11:01:00,
2013-07-03 07:15:00,58.5,54.0,29.99,SW,229,0.0,0.0,86,0.00,,,0.00,weatherlink.com 1.10,2013-07-03 11:15:00,
2013-07-03 07:30:00,61.2,55.0,30.00,SW,229,0.0,0.0,81,0.00,,,0.00,weatherlink.com 1.10,2013-07-03 11:30:00,
2013-07-03 07:45:00,62.8,56.0,29.99,SW,229,0.0,0.0,77,0.00,,,0.00,weatherlink.com 1.10,2013-07-03 11:45:00,
2013-07-03 08:15:00,64.9,56.0,30.00,NNE,30,0.0,2.0,74,0.00,,,0.00,weatherlink.com 1.10,2013-07-03 12:15:00,
2013-07-03 08:30:00,65.0,57.0,30.00,NE,34,0.0,2.0,76,0.00,,,0.00,weatherlink.com 1.10,2013-07-03 12:30:00,
2013-07-03 08:46:00,65.6,56.0,30.00,NE,42,0.0,1.0,71,0.00,,,0.00,weatherlink.com 1.10,2013-07-03 12:46:00,
2013-07-03 09:01:00,66.4,56.0,30.00,NNE,30,1.0,2.0,69,0.00,,,0.00,weatherlink.com 1.10,2013-07-03 13:01:00,
2013-07-03 09:16:00,68.0,54.0,30.00,NNE,25,2.0,2.0,62,0.00,,,0.00,weatherlink.com 1.10,2013-07-03 13:16:00,
2013-07-03 09:31:00,67.3,57.0,30.01,NNE,27,2.0,2.0,70,0.00,,,0.00,weatherlink.com 1.10,2013-07-03 13:31:00,
2013-07-03 09:46:00,67.3,55.0,30.01,North,8,2.0,3.0,65,0.00,,,0.00,weatherlink.com 1.10,2013-07-03 13:46:00,
2013-07-03 10:01:00,68.0,52.0,30.01,NNE,19,3.0,4.0,56,0.00,,,0.00,weatherlink.com 1.10,2013-07-03 14:01:00,
2013-07-03 10:31:00,68.6,54.0,30.01,North,6,2.0,3.0,59,0.00,,,0.00,weatherlink.com 1.10,2013-07-03 14:31:00,
2013-07-03 10:46:00,69.8,57.0,30.01,NNE,22,2.0,3.0,63,0.00,,,0.00,weatherlink.com 1.10,2013-07-03 14:46:00,
2013-07-03 11:16:00,71.6,51.0,30.01,ENE,65,1.0,5.0,49,0.00,,,0.00,weatherlink.com 1.10,2013-07-03 15:16:00,
2013-07-03 11:31:00,73.2,51.0,30.00,SSE,149,3.0,7.0,46,0.00,,,0.00,weatherlink.com 1.10,2013-07-03 15:31:00,
2013-07-03 11:46:00,73.9,48.0,30.00,SE,132,4.0,8.0,40,0.00,,,0.00,weatherlink.com 1.10,2013-07-03 15:46:00,
2013-07-03 12:01:00,74.2,47.0,30.00,SE,138,3.0,7.0,38,0.00,,,0.00,weatherlink.com 1.10,2013-07-03 16:01:00,
2013-07-03 12:16:00,74.5,48.0,30.00,ESE,120,2.0,5.0,39,0.00,,,0.00,weatherlink.com 1.10,2013-07-03 16:16:00,
2013-07-03 12:46:00,74.8,53.0,29.99,ESE,118,4.0,6.0,46,0.00,,,0.00,weatherlink.com 1.10,2013-07-03 16:46:00,
2013-07-03 13:01:00,75.3,52.0,29.99,SE,129,6.0,7.0,44,0.00,,,0.00,weatherlink.com 1.10,2013-07-03 17:01:00,
2013-07-03 13:31:00,75.8,53.0,29.99,SE,142,2.0,8.0,46,0.00,,,0.00,weatherlink.com 1.10,2013-07-03 17:31:00,
2013-07-03 13:46:00,75.8,54.0,29.98,SE,138,5.0,7.0,47,0.00,,,0.00,weatherlink.com 1.10,2013-07-03 17:46:00,
2013-07-03 14:01:00,75.9,55.0,29.98,SE,129,6.0,7.0,48,0.00,,,0.00,weatherlink.com 1.10,2013-07-03 18:01:00,
2013-07-03 14:31:00,75.8,55.0,29.98,SE,139,7.0,10.0,49,0.00,,,0.00,weatherlink.com 1.10,2013-07-03 18:31:00,
2013-07-03 14:46:00,75.7,55.0,29.97,SE,129,8.0,10.0,48,0.00,,,0.00,weatherlink.com 1.10,2013-07-03 18:46:00,
2013-07-03 15:01:00,75.9,52.0,29.97,SE,141,6.0,11.0,44,0.00,,,0.00,weatherlink.com 1.10,2013-07-03 19:01:00,
2013-07-03 15:16:00,76.0,55.0,29.96,SE,141,5.0,10.0,49,0.00,,,0.00,weatherlink.com 1.10,2013-07-03 19:16:00,
2013-07-03 15:31:00,75.7,54.0,29.96,SSE,159,8.0,11.0,47,0.00,,,0.00,weatherlink.com 1.10,2013-07-03 19:31:00,
2013-07-03 15:46:00,75.7,52.0,29.96,SE,134,7.0,9.0,43,0.00,,,0.00,weatherlink.com 1.10,2013-07-03 19:46:00,
2013-07-03 16:02:00,75.6,51.0,29.96,SE,139,5.0,12.0,42,0.00,,,0.00,weatherlink.com 1.10,2013-07-03 20:02:00,
2013-07-03 16:17:00,75.3,52.0,29.96,SSE,148,8.0,12.0,44,0.00,,,0.00,weatherlink.com 1.10,2013-07-03 20:17:00,
2013-07-03 16:32:00,75.2,55.0,29.96,SE,129,9.0,12.0,50,0.00,,,0.00,weatherlink.com 1.10,2013-07-03 20:32:00,
2013-07-03 16:47:00,74.9,53.0,29.96,SE,138,10.0,12.0,47,0.00,,,0.00,weatherlink.com 1.10,2013-07-03 20:47:00,
2013-07-03 17:17:00,74.0,54.0,29.95,East,87,6.0,10.0,49,0.00,,,0.00,weatherlink.com 1.10,2013-07-03 21:17:00,
2013-07-03 17:32:00,73.5,54.0,29.95,ESE,110,6.0,9.0,51,0.00,,,0.00,weatherlink.com 1.10,2013-07-03 21:32:00,
2013-07-03 17:47:00,73.1,55.0,29.95,ESE,122,6.0,8.0,53,0.00,,,0.00,weatherlink.com 1.10,2013-07-03 21:47:00,
2013-07-03 18:02:00,74.0,55.0,29.94,ESE,123,4.0,7.0,52,0.00,,,0.00,weatherlink.com 1.10,2013-07-03 22:02:00,
2013-07-03 18:17:00,74.4,54.0,29.94,SE,129,2.0,7.0,50,0.00,,,0.00,weatherlink.com 1.10,2013-07-03 22:17:00,
2013-07-03 18:32:00,74.5,55.0,29.93,SE,141,2.0,6.0,50,0.00,,,0.00,weatherlink.com 1.10,2013-07-03 22:32:00,
2013-07-03 18:47:00,74.4,56.0,29.92,ESE,122,4.0,5.0,53,0.00,,,0.00,weatherlink.com 1.10,2013-07-03 22:47:00,
2013-07-03 19:02:00,74.6,54.0,29.93,SSE,162,4.0,7.0,49,0.00,,,0.00,weatherlink.com 1.10,2013-07-03 23:02:00,
2013-07-03 19:17:00,74.0,54.0,29.92,SE,145,4.0,8.0,49,0.00,,,0.00,weatherlink.com 1.10,2013-07-03 23:17:00,
2013-07-03 19:32:00,73.7,54.0,29.92,SSE,150,4.0,6.0,50,0.00,,,0.00,weatherlink.com 1.10,2013-07-03 23:32:00,
2013-07-03 19:47:00,73.0,56.0,29.92,SSE,158,2.0,5.0,56,0.00,,,0.00,weatherlink.com 1.10,2013-07-03 23:47:00,
2013-07-03 20:02:00,72.6,54.0,29.92,SE,139,4.0,6.0,52,0.00,,,0.00,weatherlink.com 1.10,2013-07-04 00:02:00,
2013-07-03 20:17:00,71.9,54.0,29.92,SSE,152,3.0,6.0,53,0.00,,,0.00,weatherlink.com 1.10,2013-07-04 00:17:00,
2013-07-03 20:32:00,71.1,54.0,29.92,SSW,197,1.0,7.0,55,0.00,,,0.00,weatherlink.com 1.10,2013-07-04 00:32:00,
2013-07-03 21:02:00,69.3,54.0,29.93,SSW,195,0.0,2.0,59,0.00,,,0.00,weatherlink.com 1.10,2013-07-04 01:02:00,
2013-07-03 21:17:00,68.5,55.0,29.92,SSW,203,0.0,1.0,62,0.00,,,0.00,weatherlink.com 1.10,2013-07-04 01:17:00,
2013-07-03 21:32:00,67.1,56.0,29.92,SSW,198,0.0,0.0,67,0.00,,,0.00,weatherlink.com 1.10,2013-07-04 01:32:00,
2013-07-03 21:47:00,65.5,56.0,29.92,SSW,198,0.0,0.0,72,0.00,,,0.00,weatherlink.com 1.10,2013-07-04 01:47:00,
2013-07-03 22:17:00,63.9,57.0,29.93,SSW,193,0.0,1.0,77,0.00,,,0.00,weatherlink.com 1.10,2013-07-04 02:17:00,
2013-07-03 22:32:00,63.9,57.0,29.93,SSW,192,0.0,0.0,77,0.00,,,0.00,weatherlink.com 1.10,2013-07-04 02:32:00,
2013-07-03 22:47:00,63.7,57.0,29.93,SSW,193,0.0,0.0,78,0.00,,,0.00,weatherlink.com 1.10,2013-07-04 02:47:00,
2013-07-03 23:02:00,63.8,57.0,29.93,SSW,193,0.0,0.0,78,0.00,,,0.00,weatherlink.com 1.10,2013-07-04 03:02:00,
2013-07-03 23:47:00,63.2,58.0,29.93,SSW,203,0.0,0.0,82,0.00,,,0.00,weatherlink.com 1.10,2013-07-04 03:47:00,